Weather at N-304 Helipad

Public forecast

Using degrees Celsius for public forecast. Weather courtesy of forecast.io.

Closest aviation weather report (METAR) to N-304 Helipad

Closest report is Jeju International Airport, 50.8 nm (94.1 km) SW. Retrieved 2021/10/23 02:00 UTC (7 minutes ago):

RKPC 230200Z 07008KT 050V110 CAVOK 18/09 Q1028 NOSIG

Closest aviation forecast (TAF) to N-304 Helipad

Closest forecast is Jeju International Airport, 50.8 nm (94.1 km) SW. Retrieved 2021-10-23 00:00 UTC (2 hours ago):

TAF RKPC 222300Z 2300/2406 03007KT CAVOK TX18/2305Z TN13/2319Z TX18/2405Z BECMG 2310/2311 16005KT 9999 FEW040 BKN150 BECMG 2401/2402 03007KT